Time;durP1;ratioP1;P1;durP2;ratioP2;P2;SDS_P1;SDS_P2;PMS_P1;PMS_P2;Temp;Humidity;BMP_temperature;BMP_pressure;BME280_temperature;BME280_humidity;BME280_pressure;Samples;Min_cycle;Max_cycle;Signal;HPM_P1;HPM_P2
2023/05/12 01:40:42;;;;;;;;;;;;;;;;;;;;;
2023/05/12 02:45:56;;;;;;;;;;;;;;;;;;5923756;24;20372;-81
2023/05/12 05:45:05;;;;;;;;;;;;;;;;;;5982715;23;19923;-81
2023/05/12 09:10:54;;;;;;;;;;;;;;;;;;6199977;23;19915;-94
2023/05/12 09:13:23;;;;;;;;;;;;;;;;;;6149458;23;19960;-95
2023/05/12 09:16:00;;;;;;;;;;;;;;;;;;6135376;23;19952;-95
2023/05/12 09:18:36;;;;;;;;;;;;;;;;;;6135292;23;19945;-96
2023/05/12 09:21:14;;;;;;;;;;;;;;;;;;6133907;23;19948;-96
2023/05/12 09:23:57;;;;;;;;;;;;;;;;;;6135614;23;19961;-94
2023/05/12 09:26:32;;;;;;;;;;;;;;;;;;6135908;23;19945;-95
2023/05/12 09:29:08;;;;;;;;;;;;;;;;;;6134554;23;19944;-95
2023/05/12 09:31:48;;;;;;;;;;;;;;;;;;6135334;23;19944;-94
2023/05/12 09:34:19;;;;;;;;;;;;;;;;;;6135323;23;19944;-95
2023/05/12 09:36:55;;;;;;;;;;;;;;;;;;6134869;23;19944;-95
2023/05/12 09:39:24;;;;;;;;;;;;;;;;;;6134981;23;19944;-94
2023/05/12 09:41:58;;;;;;;;;;;;;;;;;;6134180;23;19948;-95
2023/05/12 09:44:32;;;;;;;;;;;;;;;;;;6135397;23;19964;-96
2023/05/12 09:47:06;;;;;;;;;;;;;;;;;;6135192;23;19944;-96
2023/05/12 09:49:33;;;;;;;;;;;;;;;;;;6134482;23;19940;-96
2023/05/12 09:52:01;;;;;;;;;;;;;;;;;;6135532;23;19960;-95
2023/05/12 09:57:23;;;;;;;;;;;;;;;;;;6176308;23;20349;-80
2023/05/12 09:59:50;;;;;;;;;;;;;;;;;;6146567;23;19905;-81
2023/05/12 10:02:17;;;;;;;;;;;;;;;;;;6171766;23;19921;-80
2023/05/12 10:04:46;;;;;;;;;;;;;;;;;;6145835;23;20368;-80
2023/05/12 10:07:16;;;;;;;;;;;;;;;;;;6145524;23;19928;-81
2023/05/12 10:09:44;;;;;;;;;;;;;;;;;;6119431;23;19928;-81
2023/05/12 10:12:11;;;;;;;;;;;;;;;;;;6148177;23;19937;-81
2023/05/12 10:14:41;;;;;;;;;;;;;;;;;;6146224;23;19921;-81
2023/05/12 10:17:08;;;;;;;;;;;;;;;;;;6122561;23;19908;-81
2023/05/12 10:19:39;;;;;;;;;;;;;;;;;;6134177;23;19921;-79
2023/05/12 10:22:06;;;;;;;;;;;;;;;;;;6127671;23;19920;-79
2023/05/12 10:24:33;;;;;;;;;;;;;;;;;;6102895;23;19921;-79
2023/05/12 10:27:00;;;;;;;;;;;;;;;;;;6129835;23;19920;-79
2023/05/12 10:29:28;;;;;;;;;;;;;;;;;;6133705;23;19921;-79
2023/05/12 10:31:59;;;;;;;;;;;;;;;;;;6105249;23;19921;-79
2023/05/12 10:34:29;;;;;;;;;;;;;;;;;;6140148;23;20505;-79
2023/05/12 10:36:58;;;;;;;;;;;;;;;;;;6107537;23;19943;-79
2023/05/12 10:39:27;;;;;;;;;;;;;;;;;;6131448;23;19924;-79
2023/05/12 10:42:00;;;;;;;;;;;;;;;;;;6131753;23;19921;-79
2023/05/12 10:44:28;;;;;;;;;;;;;;;;;;6147157;23;19925;-79
2023/05/12 10:46:59;;;;;;;;;;;;;;;;;;6122739;23;19921;-81
2023/05/12 10:49:32;;;;;;;;;;;;;;;;;;6147731;23;20482;-81
2023/05/12 10:52:00;;;;;;;;;;;;;;;;;;6157306;23;19921;-81
2023/05/12 10:54:27;;;;;;;;;;;;;;;;;;6146576;23;19921;-81
2023/05/12 10:56:57;;;;;;;;;;;;;;;;;;6146492;23;19921;-81
2023/05/12 10:59:25;;;;;;;;;;;;;;;;;;6146021;23;19927;-81
2023/05/12 11:01:59;;;;;;;;;;;;;;;;;;6147377;23;19921;-80
2023/05/12 11:04:36;;;;;;;;;;;;;;;;;;6122207;23;19925;-81
2023/05/12 11:07:04;;;;;;;;;;;;;;;;;;6157055;23;19928;-80
2023/05/12 11:09:34;;;;;;;;;;;;;;;;;;6147866;23;19920;-81
2023/05/12 11:12:02;;;;;;;;;;;;;;;;;;6148146;23;19921;-81
2023/05/12 11:14:29;;;;;;;;;;;;;;;;;;6147505;23;19925;-80
2023/05/12 11:16:56;;;;;;;;;;;;;;;;;;6148730;23;19921;-81
2023/05/12 11:19:27;;;;;;;;;;;;;;;;;;6147414;23;19921;-81
2023/05/12 11:21:56;;;;;;;;;;;;;;;;;;6147100;23;20365;-81
2023/05/12 11:24:23;;;;;;;;;;;;;;;;;;6122231;23;19920;-81
2023/05/12 11:26:53;;;;;;;;;;;;;;;;;;6121535;23;20341;-81
2023/05/12 11:29:20;;;;;;;;;;;;;;;;;;6145351;23;19921;-80
2023/05/12 11:31:48;;;;;;;;;;;;;;;;;;6146300;23;19921;-81
2023/05/12 11:34:17;;;;;;;;;;;;;;;;;;6145911;23;19921;-81
2023/05/12 11:36:48;;;;;;;;;;;;;;;;;;6156625;23;19921;-81
2023/05/12 11:39:19;;;;;;;;;;;;;;;;;;6121805;23;19921;-80
2023/05/12 11:41:47;;;;;;;;;;;;;;;;;;6147359;23;19920;-81
2023/05/12 11:44:17;;;;;;;;;;;;;;;;;;6171383;23;19921;-81
2023/05/12 11:46:56;;;;;;;;;;;;;;;;;;6157299;23;19921;-81
2023/05/12 11:49:49;;;;;;;;;;;;;;;;;;6147962;23;19921;-81
2023/05/12 11:52:18;;;;;;;;;;;;;;;;;;6097821;23;19943;-81
2023/05/12 11:54:49;;;;;;;;;;;;;;;;;;6146565;23;19921;-81
2023/05/12 11:57:24;;;;;;;;;;;;;;;;;;6148250;23;19927;-81
2023/05/12 11:59:57;;;;;;;;;;;;;;;;;;6147369;23;19921;-81
2023/05/12 12:02:26;;;;;;;;;;;;;;;;;;6159560;23;19921;-81
2023/05/12 12:04:54;;;;;;;;;;;;;;;;;;6123679;23;20295;-81
2023/05/12 12:07:30;;;;;;;;;;;;;;;;;;6124084;23;19936;-80
2023/05/12 12:10:23;;;;;;;;;;;;;;;;;;6150009;23;19927;-80
2023/05/12 12:12:50;;;;;;;;;;;;;;;;;;6149924;23;19931;-81
2023/05/12 12:15:22;;;;;;;;;;;;;;;;;;6124171;23;19905;-80
2023/05/12 12:17:50;;;;;;;;;;;;;;;;;;6124458;23;19928;-80
2023/05/12 12:20:17;;;;;;;;;;;;;;;;;;6123323;23;19921;-81
2023/05/12 12:22:46;;;;;;;;;;;;;;;;;;6148705;23;19920;-81
2023/05/12 12:25:15;;;;;;;;;;;;;;;;;;6148356;23;19919;-81
2023/05/12 12:27:42;;;;;;;;;;;;;;;;;;6149670;23;19924;-81
2023/05/12 12:30:10;;;;;;;;;;;;;;;;;;6149055;23;19927;-79
2023/05/12 12:32:42;;;;;;;;;;;;;;;;;;6148854;23;19925;-81
2023/05/12 12:35:10;;;;;;;;;;;;;;;;;;6148005;23;19947;-81
2023/05/12 12:37:37;;;;;;;;;;;;;;;;;;6150160;23;19928;-81
2023/05/12 12:40:11;;;;;;;;;;;;;;;;;;6124602;23;19920;-81
2023/05/12 12:42:40;;;;;;;;;;;;;;;;;;6148157;23;19921;-81
2023/05/12 12:45:09;;;;;;;;;;;;;;;;;;6123375;23;19926;-81
2023/05/12 12:47:37;;;;;;;;;;;;;;;;;;6124086;23;19909;-81
2023/05/12 12:50:06;;;;;;;;;;;;;;;;;;6123602;23;19921;-81
2023/05/12 12:52:36;;;;;;;;;;;;;;;;;;6148087;23;19920;-80
2023/05/12 12:55:04;;;;;;;;;;;;;;;;;;6123828;23;19925;-81
2023/05/12 12:57:33;;;;;;;;;;;;;;;;;;6153542;23;19922;-81
2023/05/12 13:00:00;;;;;;;;;;;;;;;;;;6128623;23;19920;-81
2023/05/12 13:02:27;;;;;;;;;;;;;;;;;;6128253;23;19920;-80
2023/05/12 13:05:02;;;;;;;;;;;;;;;;;;6153228;23;19921;-80
2023/05/12 13:07:35;;;;;;;;;;;;;;;;;;6154235;23;19915;-81
2023/05/12 13:10:03;;;;;;;;;;;;;;;;;;6158754;23;19968;-80
2023/05/12 13:12:31;;;;;;;;;;;;;;;;;;6156315;23;19999;-81
2023/05/12 13:15:02;;;;;;;;;;;;;;;;;;6152181;23;19920;-81
2023/05/12 13:17:33;;;;;;;;;;;;;;;;;;6188180;23;19924;-81
2023/05/12 13:20:00;;;;;;;;;;;;;;;;;;6151815;23;19950;-81
2023/05/12 13:22:28;;;;;;;;;;;;;;;;;;6126430;23;19920;-80
2023/05/12 13:24:55;;;;;;;;;;;;;;;;;;6178591;23;19921;-81
2023/05/12 13:27:22;;;;;;;;;;;;;;;;;;6150577;23;20454;-79
2023/05/12 13:29:49;;;;;;;;;;;;;;;;;;6126926;23;19921;-81
2023/05/12 13:32:19;;;;;;;;;;;;;;;;;;6151629;23;19904;-81
2023/05/12 13:34:46;;;;;;;;;;;;;;;;;;6152836;23;19921;-81
2023/05/12 13:37:14;;;;;;;;;;;;;;;;;;6150896;23;19920;-79
2023/05/12 13:39:41;;;;;;;;;;;;;;;;;;6177613;23;19920;-81
2023/05/12 13:42:08;;;;;;;;;;;;;;;;;;6151224;23;19921;-80
2023/05/12 13:44:35;;;;;;;;;;;;;;;;;;6126859;23;19920;-80
2023/05/12 13:47:07;;;;;;;;;;;;;;;;;;6127560;23;19921;-80
2023/05/12 13:49:35;;;;;;;;;;;;;;;;;;6177490;23;19931;-81
2023/05/12 13:52:05;;;;;;;;;;;;;;;;;;6152101;23;19927;-80
2023/05/12 13:54:33;;;;;;;;;;;;;;;;;;6126525;23;19905;-80
2023/05/12 13:57:02;;;;;;;;;;;;;;;;;;6151282;23;19920;-80
2023/05/12 13:59:30;;;;;;;;;;;;;;;;;;6149712;23;19921;-80
2023/05/12 14:01:58;;;;;;;;;;;;;;;;;;6150976;23;19927;-80
2023/05/12 14:04:27;;;;;;;;;;;;;;;;;;6126750;23;20009;-80
2023/05/12 14:06:55;;;;;;;;;;;;;;;;;;6127589;23;19920;-80
2023/05/12 14:09:27;;;;;;;;;;;;;;;;;;6176591;23;19920;-81
2023/05/12 14:11:56;;;;;;;;;;;;;;;;;;6152422;23;19925;-81
2023/05/12 14:14:27;;;;;;;;;;;;;;;;;;6128059;23;19920;-81
2023/05/12 14:16:56;;;;;;;;;;;;;;;;;;6177573;23;19939;-80
2023/05/12 14:19:25;;;;;;;;;;;;;;;;;;6150011;23;19908;-80
2023/05/12 14:22:00;;;;;;;;;;;;;;;;;;6126459;23;19925;-79
2023/05/12 14:24:27;;;;;;;;;;;;;;;;;;6126704;23;19921;-80
2023/05/12 14:26:56;;;;;;;;;;;;;;;;;;6151406;23;19917;-80
2023/05/12 14:29:26;;;;;;;;;;;;;;;;;;6180156;23;19924;-80
2023/05/12 14:31:53;;;;;;;;;;;;;;;;;;6152215;23;19929;-80
2023/05/12 14:34:23;;;;;;;;;;;;;;;;;;6152993;23;19939;-80
2023/05/12 14:36:52;;;;;;;;;;;;;;;;;;6177702;23;19921;-80
2023/05/12 14:39:23;;;;;;;;;;;;;;;;;;6128579;23;19921;-80
2023/05/12 14:41:55;;;;;;;;;;;;;;;;;;6152723;23;19924;-80
2023/05/12 14:44:22;;;;;;;;;;;;;;;;;;6128453;23;19921;-80
2023/05/12 14:46:51;;;;;;;;;;;;;;;;;;6177890;23;19921;-80
2023/05/12 14:49:21;;;;;;;;;;;;;;;;;;6152597;23;19920;-80
2023/05/12 14:51:51;;;;;;;;;;;;;;;;;;6176735;23;19921;-79
2023/05/12 14:54:18;;;;;;;;;;;;;;;;;;6177696;23;19920;-80
2023/05/12 14:56:46;;;;;;;;;;;;;;;;;;6151666;23;19984;-80
2023/05/12 14:59:18;;;;;;;;;;;;;;;;;;6152436;23;19926;-81
2023/05/12 15:01:51;;;;;;;;;;;;;;;;;;6153140;23;19921;-81
2023/05/12 15:04:18;;;;;;;;;;;;;;;;;;6127053;23;19920;-80
2023/05/12 15:06:45;;;;;;;;;;;;;;;;;;6177361;23;19920;-80
2023/05/12 15:09:13;;;;;;;;;;;;;;;;;;6152417;23;19909;-80
2023/05/12 15:11:44;;;;;;;;;;;;;;;;;;6152623;23;19931;-80
2023/05/12 15:14:12;;;;;;;;;;;;;;;;;;6153453;23;19921;-80
2023/05/12 15:16:40;;;;;;;;;;;;;;;;;;6152965;23;19921;-80
2023/05/12 15:19:07;;;;;;;;;;;;;;;;;;6151812;23;19920;-80
2023/05/12 15:21:34;;;;;;;;;;;;;;;;;;6177039;23;19921;-80
2023/05/12 15:24:07;;;;;;;;;;;;;;;;;;6152387;23;19920;-79
2023/05/12 15:26:37;;;;;;;;;;;;;;;;;;6187184;23;19920;-80
2023/05/12 15:29:04;;;;;;;;;;;;;;;;;;6127819;23;19921;-80
2023/05/12 15:31:35;;;;;;;;;;;;;;;;;;6130373;23;19931;-80
2023/05/12 15:34:03;;;;;;;;;;;;;;;;;;6179235;23;19921;-80
2023/05/12 15:36:31;;;;;;;;;;;;;;;;;;6129999;23;19927;-80
2023/05/12 15:38:58;;;;;;;;;;;;;;;;;;6129291;23;20008;-80
2023/05/12 15:41:29;;;;;;;;;;;;;;;;;;6154237;23;19921;-80
2023/05/12 15:43:56;;;;;;;;;;;;;;;;;;6152743;23;19927;-80
2023/05/12 15:46:23;;;;;;;;;;;;;;;;;;6179159;23;19915;-80
2023/05/12 15:48:53;;;;;;;;;;;;;;;;;;6153423;23;19927;-80
2023/05/12 15:51:25;;;;;;;;;;;;;;;;;;6154145;23;19924;-80
2023/05/12 15:53:54;;;;;;;;;;;;;;;;;;6154023;23;19920;-80
2023/05/12 15:56:21;;;;;;;;;;;;;;;;;;6129776;23;19921;-80
2023/05/12 15:58:56;;;;;;;;;;;;;;;;;;6155756;23;19921;-80
2023/05/12 16:01:26;;;;;;;;;;;;;;;;;;6154402;23;19945;-80
2023/05/12 16:03:57;;;;;;;;;;;;;;;;;;6188294;23;19921;-80
2023/05/12 16:06:27;;;;;;;;;;;;;;;;;;6154269;23;19921;-80
2023/05/12 16:08:57;;;;;;;;;;;;;;;;;;6129331;23;19935;-80
2023/05/12 16:11:24;;;;;;;;;;;;;;;;;;6153366;23;19926;-80
2023/05/12 16:13:52;;;;;;;;;;;;;;;;;;6154339;23;19920;-80
2023/05/12 16:16:32;;;;;;;;;;;;;;;;;;6154160;23;19924;-80
2023/05/12 16:19:01;;;;;;;;;;;;;;;;;;6185140;23;19942;-80
2023/05/12 16:21:30;;;;;;;;;;;;;;;;;;6154349;23;19926;-80
2023/05/12 16:24:05;;;;;;;;;;;;;;;;;;6153017;23;19925;-80
2023/05/12 16:26:32;;;;;;;;;;;;;;;;;;6153904;23;19921;-80
2023/05/12 16:29:00;;;;;;;;;;;;;;;;;;6153342;23;19943;-80
2023/05/12 16:31:27;;;;;;;;;;;;;;;;;;6128602;23;19920;-81
2023/05/12 16:33:57;;;;;;;;;;;;;;;;;;6129799;23;20260;-80
2023/05/12 16:36:25;;;;;;;;;;;;;;;;;;6152961;23;19927;-80
2023/05/12 16:38:59;;;;;;;;;;;;;;;;;;6129121;23;19935;-80
2023/05/12 16:41:26;;;;;;;;;;;;;;;;;;6128974;23;19931;-80
2023/05/12 16:43:56;;;;;;;;;;;;;;;;;;6154018;23;19927;-80
2023/05/12 16:46:34;;;;;;;;;;;;;;;;;;6153074;23;19931;-80
2023/05/12 16:49:02;;;;;;;;;;;;;;;;;;6153286;23;19930;-81
2023/05/12 16:51:33;;;;;;;;;;;;;;;;;;6153203;23;19921;-81
2023/05/12 16:54:02;;;;;;;;;;;;;;;;;;6129934;23;19927;-79
2023/05/12 16:56:32;;;;;;;;;;;;;;;;;;6128711;23;19920;-81
2023/05/12 16:58:59;;;;;;;;;;;;;;;;;;6156924;23;19948;-81
2023/05/12 17:01:30;;;;;;;;;;;;;;;;;;6134955;23;19944;-80
2023/05/12 17:04:00;;;;;;;;;;;;;;;;;;6129751;23;19920;-80
2023/05/12 17:06:27;;;;;;;;;;;;;;;;;;6158679;23;19977;-80
2023/05/12 17:08:55;;;;;;;;;;;;;;;;;;6158889;23;19964;-81
2023/05/12 17:11:23;;;;;;;;;;;;;;;;;;6131671;23;19920;-80
2023/05/12 17:13:54;;;;;;;;;;;;;;;;;;6155197;23;19920;-80
2023/05/12 17:16:21;;;;;;;;;;;;;;;;;;6153807;23;19927;-80
2023/05/12 17:18:52;;;;;;;;;;;;;;;;;;6128961;23;19927;-80
2023/05/12 17:21:27;;;;;;;;;;;;;;;;;;6129745;23;19920;-81
2023/05/12 17:23:54;;;;;;;;;;;;;;;;;;6129291;23;19921;-81
2023/05/12 17:26:28;;;;;;;;;;;;;;;;;;6152701;23;19931;-81
2023/05/12 17:28:55;;;;;;;;;;;;;;;;;;6128387;23;20259;-80
2023/05/12 17:31:22;;;;;;;;;;;;;;;;;;6127783;23;19931;-80
2023/05/12 17:33:52;;;;;;;;;;;;;;;;;;6128575;23;19921;-80
2023/05/12 17:36:22;;;;;;;;;;;;;;;;;;6153032;23;19921;-80
2023/05/12 17:38:51;;;;;;;;;;;;;;;;;;6152507;23;19920;-81
2023/05/12 17:41:18;;;;;;;;;;;;;;;;;;6152772;23;19911;-80
2023/05/12 17:43:49;;;;;;;;;;;;;;;;;;6177543;23;19927;-80
2023/05/12 17:46:23;;;;;;;;;;;;;;;;;;6152639;23;19927;-80
2023/05/12 17:48:56;;;;;;;;;;;;;;;;;;6153779;23;19921;-80
2023/05/12 17:51:23;;;;;;;;;;;;;;;;;;6178384;23;19921;-80
2023/05/12 17:53:52;;;;;;;;;;;;;;;;;;6153095;23;19930;-80
2023/05/12 17:56:22;;;;;;;;;;;;;;;;;;6152679;23;19931;-80
2023/05/12 17:58:59;;;;;;;;;;;;;;;;;;6152566;23;19924;-81
2023/05/12 18:01:26;;;;;;;;;;;;;;;;;;6151747;23;19920;-80
2023/05/12 18:03:54;;;;;;;;;;;;;;;;;;6153419;23;19904;-80
2023/05/12 18:06:21;;;;;;;;;;;;;;;;;;6128076;23;19921;-80
2023/05/12 18:08:52;;;;;;;;;;;;;;;;;;6129056;23;20260;-80
2023/05/12 18:11:21;;;;;;;;;;;;;;;;;;6151664;23;19920;-80
2023/05/12 18:13:51;;;;;;;;;;;;;;;;;;6127833;23;20262;-80
2023/05/12 18:16:19;;;;;;;;;;;;;;;;;;6128033;23;19928;-80
2023/05/12 18:18:47;;;;;;;;;;;;;;;;;;6151867;23;19927;-80
2023/05/12 18:21:14;;;;;;;;;;;;;;;;;;6152561;23;19920;-80
2023/05/12 18:23:41;;;;;;;;;;;;;;;;;;6152326;23;19921;-80
2023/05/12 18:26:09;;;;;;;;;;;;;;;;;;6175826;23;19915;-80
2023/05/12 18:28:36;;;;;;;;;;;;;;;;;;6127271;23;19921;-80
2023/05/12 18:31:06;;;;;;;;;;;;;;;;;;6152938;23;19943;-80
2023/05/12 18:33:34;;;;;;;;;;;;;;;;;;6179202;23;20247;-80
2023/05/12 18:36:02;;;;;;;;;;;;;;;;;;6128142;23;19927;-80
2023/05/12 18:38:29;;;;;;;;;;;;;;;;;;6127968;23;19935;-79
2023/05/12 18:41:05;;;;;;;;;;;;;;;;;;6152133;23;19920;-80
2023/05/12 18:43:33;;;;;;;;;;;;;;;;;;6127561;23;19921;-80
2023/05/12 18:46:04;;;;;;;;;;;;;;;;;;6153106;23;19904;-80
2023/05/12 18:48:32;;;;;;;;;;;;;;;;;;6152055;23;19921;-80
2023/05/12 18:51:01;;;;;;;;;;;;;;;;;;6186980;23;19927;-80
2023/05/12 18:53:31;;;;;;;;;;;;;;;;;;6128839;23;19931;-80
2023/05/12 18:56:09;;;;;;;;;;;;;;;;;;6127714;23;19925;-80
2023/05/12 18:58:37;;;;;;;;;;;;;;;;;;6152753;23;19920;-80
2023/05/12 19:01:04;;;;;;;;;;;;;;;;;;6152916;23;19921;-80
2023/05/12 19:03:34;;;;;;;;;;;;;;;;;;6152086;23;19921;-80
2023/05/12 19:06:03;;;;;;;;;;;;;;;;;;6128069;23;19972;-80
2023/05/12 19:08:30;;;;;;;;;;;;;;;;;;6152777;23;19931;-81
2023/05/12 19:10:57;;;;;;;;;;;;;;;;;;6152420;23;19921;-80
2023/05/12 19:13:28;;;;;;;;;;;;;;;;;;6152644;23;19931;-81
2023/05/12 19:15:55;;;;;;;;;;;;;;;;;;6126652;23;19931;-80
2023/05/12 19:18:22;;;;;;;;;;;;;;;;;;6150838;23;19931;-81
2023/05/12 19:20:52;;;;;;;;;;;;;;;;;;6178101;23;19920;-80
2023/05/12 19:23:23;;;;;;;;;;;;;;;;;;6151959;23;19920;-80
2023/05/12 19:25:50;;;;;;;;;;;;;;;;;;6127677;23;19921;-80
2023/05/12 19:28:18;;;;;;;;;;;;;;;;;;6151792;23;19951;-81
2023/05/12 19:30:48;;;;;;;;;;;;;;;;;;6178272;23;19905;-80
2023/05/12 19:33:18;;;;;;;;;;;;;;;;;;6187392;23;19931;-80
2023/05/12 19:35:48;;;;;;;;;;;;;;;;;;6151614;23;19920;-80
2023/05/12 19:38:17;;;;;;;;;;;;;;;;;;6151610;23;20283;-81
2023/05/12 19:40:45;;;;;;;;;;;;;;;;;;6151061;23;19920;-80
2023/05/12 19:43:13;;;;;;;;;;;;;;;;;;6177383;23;19927;-80
2023/05/12 19:45:45;;;;;;;;;;;;;;;;;;6151599;23;19921;-80
2023/05/12 19:48:12;;;;;;;;;;;;;;;;;;6150890;23;19927;-80
2023/05/12 19:50:41;;;;;;;;;;;;;;;;;;6152174;23;19933;-80
2023/05/12 19:53:08;;;;;;;;;;;;;;;;;;6128115;23;19927;-80
2023/05/12 19:55:37;;;;;;;;;;;;;;;;;;6151605;23;20337;-80
2023/05/12 19:58:07;;;;;;;;;;;;;;;;;;6176154;23;19921;-80
2023/05/12 20:00:41;;;;;;;;;;;;;;;;;;6151789;23;19920;-80
2023/05/12 20:03:09;;;;;;;;;;;;;;;;;;6177211;23;19925;-80
2023/05/12 20:05:39;;;;;;;;;;;;;;;;;;6176407;23;19925;-80
2023/05/12 20:08:07;;;;;;;;;;;;;;;;;;6151723;23;19927;-80
2023/05/12 20:10:34;;;;;;;;;;;;;;;;;;6152173;23;19931;-80
2023/05/12 20:13:04;;;;;;;;;;;;;;;;;;6177533;23;19929;-80
2023/05/12 20:15:35;;;;;;;;;;;;;;;;;;6151914;23;19920;-80
2023/05/12 20:18:05;;;;;;;;;;;;;;;;;;6128648;23;19921;-80
2023/05/12 20:20:33;;;;;;;;;;;;;;;;;;6128076;23;19927;-80
2023/05/12 20:23:03;;;;;;;;;;;;;;;;;;6153803;23;19927;-80
2023/05/12 20:25:34;;;;;;;;;;;;;;;;;;6154037;23;19948;-80
2023/05/12 20:28:01;;;;;;;;;;;;;;;;;;6153363;23;19920;-80
2023/05/12 20:30:34;;;;;;;;;;;;;;;;;;6129500;23;19927;-80
2023/05/12 20:33:29;;;;;;;;;;;;;;;;;;6154237;23;19926;-79
2023/05/12 20:35:58;;;;;;;;;;;;;;;;;;6152971;23;19920;-80
2023/05/12 20:38:28;;;;;;;;;;;;;;;;;;6178947;23;19931;-80
2023/05/12 20:41:03;;;;;;;;;;;;;;;;;;6187797;23;19921;-80
2023/05/12 20:43:33;;;;;;;;;;;;;;;;;;6129021;23;19921;-80
2023/05/12 20:46:04;;;;;;;;;;;;;;;;;;6153121;23;19920;-80
2023/05/12 20:48:32;;;;;;;;;;;;;;;;;;6152373;23;19920;-81
2023/05/12 20:51:09;;;;;;;;;;;;;;;;;;6176806;23;19920;-80
2023/05/12 20:53:36;;;;;;;;;;;;;;;;;;6127768;23;19931;-80
2023/05/12 20:56:06;;;;;;;;;;;;;;;;;;6177041;23;19927;-81
2023/05/12 20:58:33;;;;;;;;;;;;;;;;;;6150316;23;19930;-81
2023/05/12 21:01:00;;;;;;;;;;;;;;;;;;6150985;23;19927;-81
2023/05/12 21:03:32;;;;;;;;;;;;;;;;;;6152769;23;19931;-80
2023/05/12 21:06:02;;;;;;;;;;;;;;;;;;6185667;23;19921;-81
2023/05/12 21:08:29;;;;;;;;;;;;;;;;;;6126704;23;20357;-81
2023/05/12 21:10:57;;;;;;;;;;;;;;;;;;6152341;23;19931;-80
2023/05/12 21:13:24;;;;;;;;;;;;;;;;;;6126857;23;19924;-81
2023/05/12 21:15:54;;;;;;;;;;;;;;;;;;6156023;23;19924;-81
2023/05/12 21:18:23;;;;;;;;;;;;;;;;;;6158757;23;19905;-81
2023/05/12 21:20:52;;;;;;;;;;;;;;;;;;6183975;23;19934;-80
2023/05/12 21:23:19;;;;;;;;;;;;;;;;;;6134731;23;19980;-80
2023/05/12 21:25:47;;;;;;;;;;;;;;;;;;6158422;23;19956;-80
2023/05/12 21:28:15;;;;;;;;;;;;;;;;;;6157564;23;19964;-81
2023/05/12 21:30:44;;;;;;;;;;;;;;;;;;6132937;23;19982;-80
2023/05/12 21:33:14;;;;;;;;;;;;;;;;;;6126900;23;19927;-80
2023/05/12 21:35:41;;;;;;;;;;;;;;;;;;6143714;23;19931;-80
2023/05/12 21:38:12;;;;;;;;;;;;;;;;;;6140135;23;19925;-80
2023/05/12 21:40:39;;;;;;;;;;;;;;;;;;6143569;23;19971;-80
2023/05/12 21:43:06;;;;;;;;;;;;;;;;;;6150281;23;19920;-80
2023/05/12 21:45:38;;;;;;;;;;;;;;;;;;6131179;23;19923;-80
2023/05/12 21:48:05;;;;;;;;;;;;;;;;;;6156254;23;19948;-80
2023/05/12 21:50:33;;;;;;;;;;;;;;;;;;6155477;23;19960;-80
2023/05/12 21:53:03;;;;;;;;;;;;;;;;;;6156113;23;19948;-80
2023/05/12 21:55:31;;;;;;;;;;;;;;;;;;6131372;23;19919;-81
2023/05/12 21:57:58;;;;;;;;;;;;;;;;;;6144233;23;20236;-80
2023/05/12 22:00:26;;;;;;;;;;;;;;;;;;6138859;23;20265;-80
2023/05/12 22:02:53;;;;;;;;;;;;;;;;;;6140509;23;19921;-80
2023/05/12 22:05:20;;;;;;;;;;;;;;;;;;6116896;23;19935;-80
2023/05/12 22:07:51;;;;;;;;;;;;;;;;;;6132185;23;19952;-80
2023/05/12 22:10:20;;;;;;;;;;;;;;;;;;6137765;23;19921;-77
2023/05/12 22:12:52;;;;;;;;;;;;;;;;;;6159180;23;20344;-77
2023/05/12 22:15:19;;;;;;;;;;;;;;;;;;6177876;23;19934;-78
2023/05/12 22:17:47;;;;;;;;;;;;;;;;;;6155186;23;19920;-80
2023/05/12 22:20:15;;;;;;;;;;;;;;;;;;6205139;23;19959;-80
2023/05/12 22:22:42;;;;;;;;;;;;;;;;;;6179550;23;19924;-80
2023/05/12 22:25:09;;;;;;;;;;;;;;;;;;6153468;23;19920;-80
2023/05/12 22:27:37;;;;;;;;;;;;;;;;;;6179983;23;19920;-80
2023/05/12 22:30:06;;;;;;;;;;;;;;;;;;6154134;23;19920;-80
2023/05/12 22:32:37;;;;;;;;;;;;;;;;;;6155220;23;19920;-80
2023/05/12 22:35:05;;;;;;;;;;;;;;;;;;6215942;23;20366;-80
2023/05/12 22:37:37;;;;;;;;;;;;;;;;;;6179942;23;19930;-80
2023/05/12 22:40:04;;;;;;;;;;;;;;;;;;6153250;23;19920;-80
2023/05/12 22:42:31;;;;;;;;;;;;;;;;;;6155400;23;19920;-80
2023/05/12 22:44:59;;;;;;;;;;;;;;;;;;6206079;23;19920;-80
2023/05/12 22:47:31;;;;;;;;;;;;;;;;;;6166202;23;19926;-77
2023/05/12 22:49:58;;;;;;;;;;;;;;;;;;6177741;23;19934;-78
2023/05/12 22:52:25;;;;;;;;;;;;;;;;;;6155727;23;19920;-78
2023/05/12 22:54:53;;;;;;;;;;;;;;;;;;6206491;23;19924;-78
2023/05/12 22:57:20;;;;;;;;;;;;;;;;;;6180398;23;19931;-78
2023/05/12 22:59:47;;;;;;;;;;;;;;;;;;6154925;23;19908;-80
2023/05/12 23:02:15;;;;;;;;;;;;;;;;;;6179851;23;19927;-80
2023/05/12 23:04:43;;;;;;;;;;;;;;;;;;6179100;23;19927;-80
2023/05/12 23:07:11;;;;;;;;;;;;;;;;;;6154144;23;19925;-80
2023/05/12 23:09:38;;;;;;;;;;;;;;;;;;6177788;23;19976;-80
2023/05/12 23:12:05;;;;;;;;;;;;;;;;;;6205810;23;19904;-80
2023/05/12 23:14:33;;;;;;;;;;;;;;;;;;6205512;23;20306;-80
2023/05/12 23:17:00;;;;;;;;;;;;;;;;;;6178782;23;19920;-80
2023/05/12 23:19:27;;;;;;;;;;;;;;;;;;6182431;23;19920;-80
2023/05/12 23:21:55;;;;;;;;;;;;;;;;;;6182752;23;19935;-79
2023/05/12 23:24:22;;;;;;;;;;;;;;;;;;6178260;23;19927;-79
2023/05/12 23:26:50;;;;;;;;;;;;;;;;;;6179165;23;19927;-79
2023/05/12 23:29:17;;;;;;;;;;;;;;;;;;6177479;23;19927;-79
2023/05/12 23:31:44;;;;;;;;;;;;;;;;;;6178129;23;20260;-79
2023/05/12 23:34:11;;;;;;;;;;;;;;;;;;6177533;23;19930;-79
2023/05/12 23:36:38;;;;;;;;;;;;;;;;;;6204844;23;19920;-79
2023/05/12 23:39:10;;;;;;;;;;;;;;;;;;6203993;23;19930;-79
2023/05/12 23:41:37;;;;;;;;;;;;;;;;;;6154221;23;19920;-79
2023/05/12 23:44:04;;;;;;;;;;;;;;;;;;6178734;23;19920;-79
2023/05/12 23:46:32;;;;;;;;;;;;;;;;;;6204383;23;20144;-79
2023/05/12 23:48:59;;;;;;;;;;;;;;;;;;6177413;23;19921;-79
2023/05/12 23:51:27;;;;;;;;;;;;;;;;;;6179308;23;19920;-79
2023/05/12 23:53:54;;;;;;;;;;;;;;;;;;6179914;23;20159;-79
2023/05/12 23:56:23;;;;;;;;;;;;;;;;;;6155338;23;19920;-79
2023/05/12 23:58:50;;;;;;;;;;;;;;;;;;6179452;23;19926;-80
